sensor_id;sensor_type;location;lat;lon;timestamp;P1;durP1;ratioP1;P2;durP2;ratioP2
7181;SDS011;3632;42.724;23.298;2023-04-06T00:00:13;9.93;;;8.80;;
7181;SDS011;3632;42.724;23.298;2023-04-06T00:02:41;9.93;;;8.90;;
7181;SDS011;3632;42.724;23.298;2023-04-06T00:05:07;9.47;;;8.40;;
7181;SDS011;3632;42.724;23.298;2023-04-06T00:07:34;10.53;;;9.20;;
7181;SDS011;3632;42.724;23.298;2023-04-06T00:10:02;9.70;;;8.73;;
7181;SDS011;3632;42.724;23.298;2023-04-06T00:12:31;10.10;;;8.53;;
7181;SDS011;3632;42.724;23.298;2023-04-06T00:14:57;10.93;;;8.87;;
7181;SDS011;3632;42.724;23.298;2023-04-06T00:17:26;11.50;;;9.33;;
7181;SDS011;3632;42.724;23.298;2023-04-06T00:19:53;11.07;;;9.40;;
7181;SDS011;3632;42.724;23.298;2023-04-06T00:22:20;11.43;;;9.90;;
7181;SDS011;3632;42.724;23.298;2023-04-06T00:24:47;10.27;;;8.80;;
7181;SDS011;3632;42.724;23.298;2023-04-06T00:27:13;10.23;;;8.97;;
7181;SDS011;3632;42.724;23.298;2023-04-06T00:29:43;10.27;;;9.13;;
7181;SDS011;3632;42.724;23.298;2023-04-06T00:32:10;10.83;;;9.37;;
7181;SDS011;3632;42.724;23.298;2023-04-06T00:34:37;10.13;;;8.17;;
7181;SDS011;3632;42.724;23.298;2023-04-06T00:37:04;9.53;;;8.20;;
7181;SDS011;3632;42.724;23.298;2023-04-06T00:39:30;10.57;;;8.83;;
7181;SDS011;3632;42.724;23.298;2023-04-06T00:41:57;10.53;;;8.50;;
7181;SDS011;3632;42.724;23.298;2023-04-06T00:44:25;9.97;;;8.07;;
7181;SDS011;3632;42.724;23.298;2023-04-06T00:46:54;10.77;;;8.63;;
7181;SDS011;3632;42.724;23.298;2023-04-06T00:49:21;10.03;;;8.33;;
7181;SDS011;3632;42.724;23.298;2023-04-06T00:51:48;10.47;;;8.87;;
7181;SDS011;3632;42.724;23.298;2023-04-06T00:54:15;11.37;;;8.77;;
7181;SDS011;3632;42.724;23.298;2023-04-06T00:56:42;10.50;;;8.37;;
7181;SDS011;3632;42.724;23.298;2023-04-06T00:59:10;12.37;;;9.00;;
7181;SDS011;3632;42.724;23.298;2023-04-06T01:01:37;10.27;;;8.43;;
7181;SDS011;3632;42.724;23.298;2023-04-06T01:04:05;9.60;;;8.27;;
7181;SDS011;3632;42.724;23.298;2023-04-06T01:06:32;9.30;;;7.87;;
7181;SDS011;3632;42.724;23.298;2023-04-06T01:08:59;9.80;;;8.60;;
7181;SDS011;3632;42.724;23.298;2023-04-06T01:11:26;9.30;;;8.17;;
7181;SDS011;3632;42.724;23.298;2023-04-06T01:13:53;11.03;;;8.90;;
7181;SDS011;3632;42.724;23.298;2023-04-06T01:16:20;10.40;;;9.23;;
7181;SDS011;3632;42.724;23.298;2023-04-06T01:18:47;10.60;;;9.40;;
7181;SDS011;3632;42.724;23.298;2023-04-06T01:21:15;11.43;;;9.03;;
7181;SDS011;3632;42.724;23.298;2023-04-06T01:23:44;10.33;;;9.23;;
7181;SDS011;3632;42.724;23.298;2023-04-06T01:26:11;11.47;;;9.57;;
7181;SDS011;3632;42.724;23.298;2023-04-06T01:28:38;12.07;;;9.63;;
7181;SDS011;3632;42.724;23.298;2023-04-06T01:31:06;11.27;;;9.43;;
7181;SDS011;3632;42.724;23.298;2023-04-06T01:33:33;11.93;;;9.80;;
7181;SDS011;3632;42.724;23.298;2023-04-06T01:36:01;11.53;;;10.20;;
7181;SDS011;3632;42.724;23.298;2023-04-06T01:38:28;10.30;;;9.07;;
7181;SDS011;3632;42.724;23.298;2023-04-06T01:40:57;11.90;;;10.20;;
7181;SDS011;3632;42.724;23.298;2023-04-06T01:43:24;12.87;;;10.07;;
7181;SDS011;3632;42.724;23.298;2023-04-06T01:45:50;11.20;;;9.27;;
7181;SDS011;3632;42.724;23.298;2023-04-06T01:48:18;10.80;;;9.63;;
7181;SDS011;3632;42.724;23.298;2023-04-06T01:50:44;11.03;;;9.13;;
7181;SDS011;3632;42.724;23.298;2023-04-06T01:53:11;12.70;;;9.87;;
7181;SDS011;3632;42.724;23.298;2023-04-06T01:55:38;13.73;;;9.83;;
7181;SDS011;3632;42.724;23.298;2023-04-06T01:58:06;10.83;;;9.03;;
7181;SDS011;3632;42.724;23.298;2023-04-06T02:00:33;10.43;;;9.33;;
7181;SDS011;3632;42.724;23.298;2023-04-06T02:03:00;10.93;;;9.80;;
7181;SDS011;3632;42.724;23.298;2023-04-06T02:05:27;11.23;;;10.03;;
7181;SDS011;3632;42.724;23.298;2023-04-06T02:07:55;12.20;;;9.30;;
7181;SDS011;3632;42.724;23.298;2023-04-06T02:10:22;11.63;;;9.93;;
7181;SDS011;3632;42.724;23.298;2023-04-06T02:12:49;12.07;;;10.47;;
7181;SDS011;3632;42.724;23.298;2023-04-06T02:15:18;13.00;;;10.43;;
7181;SDS011;3632;42.724;23.298;2023-04-06T02:17:45;14.40;;;10.33;;
7181;SDS011;3632;42.724;23.298;2023-04-06T02:20:11;12.60;;;10.30;;
7181;SDS011;3632;42.724;23.298;2023-04-06T02:22:38;11.97;;;9.80;;
7181;SDS011;3632;42.724;23.298;2023-04-06T02:25:06;11.70;;;10.33;;
7181;SDS011;3632;42.724;23.298;2023-04-06T02:27:33;11.67;;;10.43;;
7181;SDS011;3632;42.724;23.298;2023-04-06T02:30:01;12.33;;;10.30;;
7181;SDS011;3632;42.724;23.298;2023-04-06T02:32:29;12.63;;;10.53;;
7181;SDS011;3632;42.724;23.298;2023-04-06T02:34:56;12.10;;;10.30;;
7181;SDS011;3632;42.724;23.298;2023-04-06T02:37:23;13.03;;;10.93;;
7181;SDS011;3632;42.724;23.298;2023-04-06T02:39:50;14.50;;;11.40;;
7181;SDS011;3632;42.724;23.298;2023-04-06T02:42:17;14.70;;;10.77;;
7181;SDS011;3632;42.724;23.298;2023-04-06T02:44:44;11.93;;;10.60;;
7181;SDS011;3632;42.724;23.298;2023-04-06T02:47:11;13.57;;;11.67;;
7181;SDS011;3632;42.724;23.298;2023-04-06T02:49:39;13.83;;;11.77;;
7181;SDS011;3632;42.724;23.298;2023-04-06T02:52:06;12.87;;;11.20;;
7181;SDS011;3632;42.724;23.298;2023-04-06T02:54:33;14.73;;;11.73;;
7181;SDS011;3632;42.724;23.298;2023-04-06T02:56:59;14.20;;;11.70;;
7181;SDS011;3632;42.724;23.298;2023-04-06T02:59:26;13.73;;;10.47;;
7181;SDS011;3632;42.724;23.298;2023-04-06T03:01:53;11.00;;;9.50;;
7181;SDS011;3632;42.724;23.298;2023-04-06T03:04:20;12.10;;;9.90;;
7181;SDS011;3632;42.724;23.298;2023-04-06T03:06:51;11.90;;;10.10;;
7181;SDS011;3632;42.724;23.298;2023-04-06T03:09:20;12.57;;;10.43;;
7181;SDS011;3632;42.724;23.298;2023-04-06T03:11:47;13.40;;;9.67;;
7181;SDS011;3632;42.724;23.298;2023-04-06T03:14:14;12.90;;;10.57;;
7181;SDS011;3632;42.724;23.298;2023-04-06T03:16:42;13.10;;;10.23;;
7181;SDS011;3632;42.724;23.298;2023-04-06T03:19:10;13.50;;;10.70;;
7181;SDS011;3632;42.724;23.298;2023-04-06T03:21:36;15.87;;;11.57;;
7181;SDS011;3632;42.724;23.298;2023-04-06T03:24:05;14.83;;;11.83;;
7181;SDS011;3632;42.724;23.298;2023-04-06T03:26:33;14.37;;;11.57;;
7181;SDS011;3632;42.724;23.298;2023-04-06T03:28:59;12.53;;;10.70;;
7181;SDS011;3632;42.724;23.298;2023-04-06T03:31:26;14.33;;;11.30;;
7181;SDS011;3632;42.724;23.298;2023-04-06T03:33:53;12.87;;;11.17;;
7181;SDS011;3632;42.724;23.298;2023-04-06T03:36:20;13.63;;;11.40;;
7181;SDS011;3632;42.724;23.298;2023-04-06T03:38:47;13.40;;;11.37;;
7181;SDS011;3632;42.724;23.298;2023-04-06T03:41:15;14.00;;;12.00;;
7181;SDS011;3632;42.724;23.298;2023-04-06T03:43:42;14.17;;;11.57;;
7181;SDS011;3632;42.724;23.298;2023-04-06T03:46:08;17.10;;;12.03;;
7181;SDS011;3632;42.724;23.298;2023-04-06T03:48:35;13.87;;;11.37;;
7181;SDS011;3632;42.724;23.298;2023-04-06T03:51:02;14.87;;;12.40;;
7181;SDS011;3632;42.724;23.298;2023-04-06T03:53:29;14.50;;;11.97;;
7181;SDS011;3632;42.724;23.298;2023-04-06T03:55:56;15.83;;;12.97;;
7181;SDS011;3632;42.724;23.298;2023-04-06T03:58:24;15.33;;;11.80;;
7181;SDS011;3632;42.724;23.298;2023-04-06T04:00:51;13.53;;;11.60;;
7181;SDS011;3632;42.724;23.298;2023-04-06T04:03:18;13.93;;;11.37;;
7181;SDS011;3632;42.724;23.298;2023-04-06T04:05:46;18.87;;;12.70;;
7181;SDS011;3632;42.724;23.298;2023-04-06T04:08:13;14.37;;;11.80;;
7181;SDS011;3632;42.724;23.298;2023-04-06T04:10:40;14.43;;;11.43;;
7181;SDS011;3632;42.724;23.298;2023-04-06T04:13:07;17.90;;;12.50;;
7181;SDS011;3632;42.724;23.298;2023-04-06T04:15:35;15.70;;;12.60;;
7181;SDS011;3632;42.724;23.298;2023-04-06T04:18:02;17.93;;;14.17;;
7181;SDS011;3632;42.724;23.298;2023-04-06T04:20:29;18.13;;;13.53;;
7181;SDS011;3632;42.724;23.298;2023-04-06T04:22:56;19.93;;;14.80;;
7181;SDS011;3632;42.724;23.298;2023-04-06T04:25:23;15.37;;;12.07;;
7181;SDS011;3632;42.724;23.298;2023-04-06T04:27:50;15.37;;;12.73;;
7181;SDS011;3632;42.724;23.298;2023-04-06T04:30:17;17.80;;;12.63;;
7181;SDS011;3632;42.724;23.298;2023-04-06T04:32:45;17.27;;;12.07;;
7181;SDS011;3632;42.724;23.298;2023-04-06T04:35:12;16.93;;;12.23;;
7181;SDS011;3632;42.724;23.298;2023-04-06T04:37:40;16.00;;;11.90;;
7181;SDS011;3632;42.724;23.298;2023-04-06T04:40:07;14.90;;;11.97;;
7181;SDS011;3632;42.724;23.298;2023-04-06T04:42:35;15.17;;;12.73;;
7181;SDS011;3632;42.724;23.298;2023-04-06T04:45:02;16.43;;;12.40;;
7181;SDS011;3632;42.724;23.298;2023-04-06T04:47:29;16.67;;;12.80;;
7181;SDS011;3632;42.724;23.298;2023-04-06T04:49:57;16.63;;;12.93;;
7181;SDS011;3632;42.724;23.298;2023-04-06T04:52:24;14.13;;;11.50;;
7181;SDS011;3632;42.724;23.298;2023-04-06T04:54:51;17.30;;;12.37;;
7181;SDS011;3632;42.724;23.298;2023-04-06T04:57:18;15.50;;;12.03;;
7181;SDS011;3632;42.724;23.298;2023-04-06T04:59:45;18.83;;;11.20;;
7181;SDS011;3632;42.724;23.298;2023-04-06T05:02:11;18.10;;;12.50;;
7181;SDS011;3632;42.724;23.298;2023-04-06T05:04:38;16.87;;;11.47;;
7181;SDS011;3632;42.724;23.298;2023-04-06T05:07:07;13.83;;;11.40;;
7181;SDS011;3632;42.724;23.298;2023-04-06T05:09:35;15.23;;;10.67;;
7181;SDS011;3632;42.724;23.298;2023-04-06T05:12:02;12.63;;;10.30;;
7181;SDS011;3632;42.724;23.298;2023-04-06T05:14:29;16.10;;;10.53;;
7181;SDS011;3632;42.724;23.298;2023-04-06T05:16:56;14.00;;;11.03;;
7181;SDS011;3632;42.724;23.298;2023-04-06T05:19:23;11.80;;;10.07;;
7181;SDS011;3632;42.724;23.298;2023-04-06T05:21:50;15.20;;;10.20;;
7181;SDS011;3632;42.724;23.298;2023-04-06T05:24:18;14.20;;;10.43;;
7181;SDS011;3632;42.724;23.298;2023-04-06T05:26:45;12.73;;;10.43;;
7181;SDS011;3632;42.724;23.298;2023-04-06T05:29:12;13.30;;;9.60;;
7181;SDS011;3632;42.724;23.298;2023-04-06T05:31:39;12.03;;;10.67;;
7181;SDS011;3632;42.724;23.298;2023-04-06T05:34:06;14.30;;;10.47;;
7181;SDS011;3632;42.724;23.298;2023-04-06T05:36:34;13.17;;;10.83;;
7181;SDS011;3632;42.724;23.298;2023-04-06T05:39:01;15.20;;;11.50;;
7181;SDS011;3632;42.724;23.298;2023-04-06T05:41:29;13.43;;;11.20;;
7181;SDS011;3632;42.724;23.298;2023-04-06T05:43:56;15.63;;;11.33;;
7181;SDS011;3632;42.724;23.298;2023-04-06T05:46:23;15.13;;;11.30;;
7181;SDS011;3632;42.724;23.298;2023-04-06T05:48:50;16.30;;;12.77;;
7181;SDS011;3632;42.724;23.298;2023-04-06T05:51:17;17.63;;;12.47;;
7181;SDS011;3632;42.724;23.298;2023-04-06T05:53:44;16.83;;;12.53;;
7181;SDS011;3632;42.724;23.298;2023-04-06T05:56:11;15.97;;;11.93;;
7181;SDS011;3632;42.724;23.298;2023-04-06T05:58:39;15.00;;;11.87;;
7181;SDS011;3632;42.724;23.298;2023-04-06T06:01:06;17.63;;;12.40;;
7181;SDS011;3632;42.724;23.298;2023-04-06T06:03:34;17.67;;;13.17;;
7181;SDS011;3632;42.724;23.298;2023-04-06T06:06:01;19.37;;;13.13;;
7181;SDS011;3632;42.724;23.298;2023-04-06T06:08:29;18.90;;;12.93;;
7181;SDS011;3632;42.724;23.298;2023-04-06T06:10:56;14.17;;;11.67;;
7181;SDS011;3632;42.724;23.298;2023-04-06T06:13:23;15.47;;;10.83;;
7181;SDS011;3632;42.724;23.298;2023-04-06T06:15:51;13.97;;;11.40;;
7181;SDS011;3632;42.724;23.298;2023-04-06T06:18:18;17.40;;;11.80;;
7181;SDS011;3632;42.724;23.298;2023-04-06T06:20:45;12.73;;;10.83;;
7181;SDS011;3632;42.724;23.298;2023-04-06T06:23:12;14.10;;;11.90;;
7181;SDS011;3632;42.724;23.298;2023-04-06T06:25:39;14.60;;;11.03;;
7181;SDS011;3632;42.724;23.298;2023-04-06T06:28:06;14.00;;;11.10;;
7181;SDS011;3632;42.724;23.298;2023-04-06T06:30:32;13.60;;;11.03;;
7181;SDS011;3632;42.724;23.298;2023-04-06T06:33:01;13.17;;;10.37;;
7181;SDS011;3632;42.724;23.298;2023-04-06T06:35:28;14.90;;;10.30;;
7181;SDS011;3632;42.724;23.298;2023-04-06T06:37:55;16.77;;;11.53;;
7181;SDS011;3632;42.724;23.298;2023-04-06T06:40:22;14.83;;;11.00;;
7181;SDS011;3632;42.724;23.298;2023-04-06T06:42:51;16.10;;;12.23;;
7181;SDS011;3632;42.724;23.298;2023-04-06T06:45:18;15.80;;;10.97;;
7181;SDS011;3632;42.724;23.298;2023-04-06T06:47:45;17.70;;;11.57;;
7181;SDS011;3632;42.724;23.298;2023-04-06T06:50:13;12.83;;;10.23;;
7181;SDS011;3632;42.724;23.298;2023-04-06T06:52:40;13.20;;;10.37;;
7181;SDS011;3632;42.724;23.298;2023-04-06T06:55:08;14.80;;;10.87;;
7181;SDS011;3632;42.724;23.298;2023-04-06T06:57:36;13.03;;;10.47;;
7181;SDS011;3632;42.724;23.298;2023-04-06T07:00:04;12.00;;;9.67;;
7181;SDS011;3632;42.724;23.298;2023-04-06T07:02:33;12.80;;;10.03;;
7181;SDS011;3632;42.724;23.298;2023-04-06T07:05:00;14.10;;;11.37;;
7181;SDS011;3632;42.724;23.298;2023-04-06T07:07:29;15.63;;;11.60;;
7181;SDS011;3632;42.724;23.298;2023-04-06T07:09:56;14.63;;;10.47;;
7181;SDS011;3632;42.724;23.298;2023-04-06T07:12:23;15.30;;;11.33;;
7181;SDS011;3632;42.724;23.298;2023-04-06T07:14:49;13.70;;;10.43;;
7181;SDS011;3632;42.724;23.298;2023-04-06T07:17:16;13.33;;;10.43;;
7181;SDS011;3632;42.724;23.298;2023-04-06T07:19:43;13.17;;;10.27;;
7181;SDS011;3632;42.724;23.298;2023-04-06T07:22:10;13.73;;;10.73;;
7181;SDS011;3632;42.724;23.298;2023-04-06T07:24:38;12.30;;;9.67;;
7181;SDS011;3632;42.724;23.298;2023-04-06T07:27:05;15.80;;;11.10;;
7181;SDS011;3632;42.724;23.298;2023-04-06T07:29:32;18.80;;;11.20;;
7181;SDS011;3632;42.724;23.298;2023-04-06T07:31:59;16.33;;;11.97;;
7181;SDS011;3632;42.724;23.298;2023-04-06T07:34:26;15.07;;;11.43;;
7181;SDS011;3632;42.724;23.298;2023-04-06T07:36:53;13.93;;;10.60;;
7181;SDS011;3632;42.724;23.298;2023-04-06T07:39:20;11.70;;;9.60;;
7181;SDS011;3632;42.724;23.298;2023-04-06T07:41:48;12.27;;;9.90;;
7181;SDS011;3632;42.724;23.298;2023-04-06T07:44:15;13.73;;;10.43;;
7181;SDS011;3632;42.724;23.298;2023-04-06T07:46:42;11.23;;;9.17;;
7181;SDS011;3632;42.724;23.298;2023-04-06T07:49:09;13.57;;;10.07;;
7181;SDS011;3632;42.724;23.298;2023-04-06T07:51:36;14.60;;;9.90;;
7181;SDS011;3632;42.724;23.298;2023-04-06T07:54:03;16.00;;;10.17;;
7181;SDS011;3632;42.724;23.298;2023-04-06T07:56:30;11.73;;;9.20;;
7181;SDS011;3632;42.724;23.298;2023-04-06T07:58:58;15.03;;;9.73;;
7181;SDS011;3632;42.724;23.298;2023-04-06T08:01:26;10.47;;;9.20;;
7181;SDS011;3632;42.724;23.298;2023-04-06T08:03:54;12.63;;;9.10;;
7181;SDS011;3632;42.724;23.298;2023-04-06T08:06:21;12.10;;;9.57;;
7181;SDS011;3632;42.724;23.298;2023-04-06T08:08:48;13.90;;;10.20;;
7181;SDS011;3632;42.724;23.298;2023-04-06T08:11:15;12.37;;;9.63;;
7181;SDS011;3632;42.724;23.298;2023-04-06T08:13:42;11.53;;;8.80;;
7181;SDS011;3632;42.724;23.298;2023-04-06T08:16:11;11.47;;;9.47;;
7181;SDS011;3632;42.724;23.298;2023-04-06T08:18:38;11.37;;;9.37;;
7181;SDS011;3632;42.724;23.298;2023-04-06T08:21:05;10.07;;;8.50;;
7181;SDS011;3632;42.724;23.298;2023-04-06T08:23:32;11.07;;;9.10;;
7181;SDS011;3632;42.724;23.298;2023-04-06T08:25:59;14.90;;;10.27;;
7181;SDS011;3632;42.724;23.298;2023-04-06T08:28:26;15.00;;;9.83;;
7181;SDS011;3632;42.724;23.298;2023-04-06T08:30:52;11.00;;;9.30;;
7181;SDS011;3632;42.724;23.298;2023-04-06T08:33:21;11.00;;;9.13;;
7181;SDS011;3632;42.724;23.298;2023-04-06T08:35:48;10.17;;;9.10;;
7181;SDS011;3632;42.724;23.298;2023-04-06T08:38:15;16.50;;;9.10;;
7181;SDS011;3632;42.724;23.298;2023-04-06T08:40:41;12.70;;;10.30;;
7181;SDS011;3632;42.724;23.298;2023-04-06T08:43:11;16.63;;;11.37;;
7181;SDS011;3632;42.724;23.298;2023-04-06T08:45:40;12.60;;;9.73;;
7181;SDS011;3632;42.724;23.298;2023-04-06T08:48:08;12.70;;;10.80;;
7181;SDS011;3632;42.724;23.298;2023-04-06T08:50:37;11.23;;;8.93;;
7181;SDS011;3632;42.724;23.298;2023-04-06T08:53:05;10.53;;;9.20;;
7181;SDS011;3632;42.724;23.298;2023-04-06T08:55:33;11.67;;;8.47;;
7181;SDS011;3632;42.724;23.298;2023-04-06T08:58:00;11.53;;;9.03;;
7181;SDS011;3632;42.724;23.298;2023-04-06T09:00:28;12.00;;;9.53;;
7181;SDS011;3632;42.724;23.298;2023-04-06T09:02:56;9.77;;;8.20;;
7181;SDS011;3632;42.724;23.298;2023-04-06T09:05:24;11.43;;;8.50;;
7181;SDS011;3632;42.724;23.298;2023-04-06T09:07:55;13.87;;;9.90;;
7181;SDS011;3632;42.724;23.298;2023-04-06T09:10:22;12.17;;;9.43;;
7181;SDS011;3632;42.724;23.298;2023-04-06T09:12:50;11.43;;;8.73;;
7181;SDS011;3632;42.724;23.298;2023-04-06T09:15:18;13.43;;;10.30;;
7181;SDS011;3632;42.724;23.298;2023-04-06T09:17:46;9.53;;;8.50;;
7181;SDS011;3632;42.724;23.298;2023-04-06T09:20:13;10.13;;;8.93;;
7181;SDS011;3632;42.724;23.298;2023-04-06T09:22:42;9.67;;;8.50;;
7181;SDS011;3632;42.724;23.298;2023-04-06T09:25:17;11.07;;;8.20;;
7181;SDS011;3632;42.724;23.298;2023-04-06T09:27:45;9.90;;;8.17;;
7181;SDS011;3632;42.724;23.298;2023-04-06T09:30:12;9.83;;;8.10;;
7181;SDS011;3632;42.724;23.298;2023-04-06T09:32:45;13.83;;;8.63;;
7181;SDS011;3632;42.724;23.298;2023-04-06T09:35:14;9.10;;;8.13;;
7181;SDS011;3632;42.724;23.298;2023-04-06T09:37:45;9.90;;;8.30;;
7181;SDS011;3632;42.724;23.298;2023-04-06T09:40:14;10.93;;;8.87;;
7181;SDS011;3632;42.724;23.298;2023-04-06T09:42:44;9.73;;;8.17;;
7181;SDS011;3632;42.724;23.298;2023-04-06T09:45:12;9.80;;;7.60;;
7181;SDS011;3632;42.724;23.298;2023-04-06T09:47:39;12.33;;;8.33;;
7181;SDS011;3632;42.724;23.298;2023-04-06T09:50:09;11.53;;;8.50;;
7181;SDS011;3632;42.724;23.298;2023-04-06T09:52:38;9.50;;;7.67;;
7181;SDS011;3632;42.724;23.298;2023-04-06T09:55:09;10.23;;;8.17;;
7181;SDS011;3632;42.724;23.298;2023-04-06T09:57:41;10.43;;;8.07;;
7181;SDS011;3632;42.724;23.298;2023-04-06T10:00:12;9.70;;;8.40;;
7181;SDS011;3632;42.724;23.298;2023-04-06T10:02:45;11.67;;;7.83;;
7181;SDS011;3632;42.724;23.298;2023-04-06T10:05:19;10.83;;;8.30;;
7181;SDS011;3632;42.724;23.298;2023-04-06T10:07:53;9.40;;;7.87;;
7181;SDS011;3632;42.724;23.298;2023-04-06T10:10:22;10.93;;;8.07;;
7181;SDS011;3632;42.724;23.298;2023-04-06T10:12:50;10.27;;;8.40;;
7181;SDS011;3632;42.724;23.298;2023-04-06T10:15:18;8.43;;;7.53;;
7181;SDS011;3632;42.724;23.298;2023-04-06T10:17:45;10.07;;;8.53;;
7181;SDS011;3632;42.724;23.298;2023-04-06T10:20:13;10.53;;;8.43;;
7181;SDS011;3632;42.724;23.298;2023-04-06T10:22:49;10.70;;;7.40;;
7181;SDS011;3632;42.724;23.298;2023-04-06T10:25:28;8.67;;;7.33;;
7181;SDS011;3632;42.724;23.298;2023-04-06T10:28:04;9.17;;;8.20;;
7181;SDS011;3632;42.724;23.298;2023-04-06T10:30:32;8.13;;;7.30;;
7181;SDS011;3632;42.724;23.298;2023-04-06T10:33:00;8.03;;;6.67;;
7181;SDS011;3632;42.724;23.298;2023-04-06T10:35:36;15.03;;;7.37;;
7181;SDS011;3632;42.724;23.298;2023-04-06T10:38:04;8.47;;;7.20;;
7181;SDS011;3632;42.724;23.298;2023-04-06T10:40:31;10.80;;;7.70;;
7181;SDS011;3632;42.724;23.298;2023-04-06T10:43:08;10.57;;;7.80;;
7181;SDS011;3632;42.724;23.298;2023-04-06T10:45:37;10.90;;;7.43;;
7181;SDS011;3632;42.724;23.298;2023-04-06T10:48:13;9.07;;;6.93;;
7181;SDS011;3632;42.724;23.298;2023-04-06T10:50:41;7.50;;;6.77;;
7181;SDS011;3632;42.724;23.298;2023-04-06T10:53:08;7.03;;;6.33;;
7181;SDS011;3632;42.724;23.298;2023-04-06T10:55:35;8.83;;;7.30;;
7181;SDS011;3632;42.724;23.298;2023-04-06T10:58:07;8.03;;;6.73;;
7181;SDS011;3632;42.724;23.298;2023-04-06T11:00:34;9.33;;;7.67;;
7181;SDS011;3632;42.724;23.298;2023-04-06T11:03:02;9.23;;;7.57;;
7181;SDS011;3632;42.724;23.298;2023-04-06T11:05:28;9.40;;;8.40;;
7181;SDS011;3632;42.724;23.298;2023-04-06T11:07:56;10.97;;;7.27;;
7181;SDS011;3632;42.724;23.298;2023-04-06T11:10:23;8.57;;;7.23;;
7181;SDS011;3632;42.724;23.298;2023-04-06T11:12:54;9.37;;;7.67;;
7181;SDS011;3632;42.724;23.298;2023-04-06T11:15:22;9.07;;;7.20;;
7181;SDS011;3632;42.724;23.298;2023-04-06T11:17:49;7.70;;;6.90;;
7181;SDS011;3632;42.724;23.298;2023-04-06T11:20:17;8.00;;;7.20;;
7181;SDS011;3632;42.724;23.298;2023-04-06T11:22:48;10.00;;;7.47;;
7181;SDS011;3632;42.724;23.298;2023-04-06T11:25:16;8.00;;;6.77;;
7181;SDS011;3632;42.724;23.298;2023-04-06T11:27:44;9.97;;;7.43;;
7181;SDS011;3632;42.724;23.298;2023-04-06T11:30:11;9.73;;;6.83;;
7181;SDS011;3632;42.724;23.298;2023-04-06T11:32:41;11.10;;;7.47;;
7181;SDS011;3632;42.724;23.298;2023-04-06T11:35:10;10.47;;;7.10;;
7181;SDS011;3632;42.724;23.298;2023-04-06T11:37:38;7.87;;;7.07;;
7181;SDS011;3632;42.724;23.298;2023-04-06T11:40:07;7.70;;;6.63;;
7181;SDS011;3632;42.724;23.298;2023-04-06T11:42:35;8.93;;;7.23;;
7181;SDS011;3632;42.724;23.298;2023-04-06T11:45:02;8.17;;;6.67;;
7181;SDS011;3632;42.724;23.298;2023-04-06T11:47:30;7.13;;;6.43;;
7181;SDS011;3632;42.724;23.298;2023-04-06T11:50:06;7.73;;;6.40;;
7181;SDS011;3632;42.724;23.298;2023-04-06T11:52:34;8.63;;;6.77;;
7181;SDS011;3632;42.724;23.298;2023-04-06T11:55:09;9.67;;;7.17;;
7181;SDS011;3632;42.724;23.298;2023-04-06T11:57:38;7.20;;;6.50;;
7181;SDS011;3632;42.724;23.298;2023-04-06T12:00:05;7.50;;;6.80;;
7181;SDS011;3632;42.724;23.298;2023-04-06T12:02:33;9.70;;;7.00;;
7181;SDS011;3632;42.724;23.298;2023-04-06T12:05:00;6.73;;;6.13;;
7181;SDS011;3632;42.724;23.298;2023-04-06T12:07:28;6.67;;;6.03;;
7181;SDS011;3632;42.724;23.298;2023-04-06T12:09:55;7.67;;;6.63;;
7181;SDS011;3632;42.724;23.298;2023-04-06T12:12:22;9.83;;;7.10;;
7181;SDS011;3632;42.724;23.298;2023-04-06T12:14:49;7.70;;;6.43;;
7181;SDS011;3632;42.724;23.298;2023-04-06T12:17:15;7.70;;;6.43;;
7181;SDS011;3632;42.724;23.298;2023-04-06T12:19:42;7.87;;;6.97;;
7181;SDS011;3632;42.724;23.298;2023-04-06T12:22:09;10.17;;;6.00;;
7181;SDS011;3632;42.724;23.298;2023-04-06T12:24:37;8.47;;;6.20;;
7181;SDS011;3632;42.724;23.298;2023-04-06T12:27:04;6.47;;;5.87;;
7181;SDS011;3632;42.724;23.298;2023-04-06T12:29:31;7.93;;;6.10;;
7181;SDS011;3632;42.724;23.298;2023-04-06T12:31:58;7.33;;;5.80;;
7181;SDS011;3632;42.724;23.298;2023-04-06T12:34:26;6.80;;;5.80;;
7181;SDS011;3632;42.724;23.298;2023-04-06T12:36:53;7.97;;;6.23;;
7181;SDS011;3632;42.724;23.298;2023-04-06T12:39:20;7.20;;;6.17;;
7181;SDS011;3632;42.724;23.298;2023-04-06T12:41:49;8.13;;;6.83;;
7181;SDS011;3632;42.724;23.298;2023-04-06T12:44:16;8.50;;;6.40;;
7181;SDS011;3632;42.724;23.298;2023-04-06T12:46:42;7.53;;;6.70;;
7181;SDS011;3632;42.724;23.298;2023-04-06T12:49:10;7.27;;;6.50;;
7181;SDS011;3632;42.724;23.298;2023-04-06T12:51:37;10.00;;;6.60;;
7181;SDS011;3632;42.724;23.298;2023-04-06T12:54:04;9.37;;;6.63;;
7181;SDS011;3632;42.724;23.298;2023-04-06T12:56:31;9.07;;;7.40;;
7181;SDS011;3632;42.724;23.298;2023-04-06T12:58:59;10.73;;;7.43;;
7181;SDS011;3632;42.724;23.298;2023-04-06T13:01:26;7.03;;;6.33;;
7181;SDS011;3632;42.724;23.298;2023-04-06T13:03:53;8.63;;;6.90;;
7181;SDS011;3632;42.724;23.298;2023-04-06T13:06:19;8.40;;;7.60;;
7181;SDS011;3632;42.724;23.298;2023-04-06T13:08:46;9.20;;;6.80;;
7181;SDS011;3632;42.724;23.298;2023-04-06T13:11:15;7.80;;;7.00;;
7181;SDS011;3632;42.724;23.298;2023-04-06T13:13:42;7.00;;;6.30;;
7181;SDS011;3632;42.724;23.298;2023-04-06T13:16:10;7.97;;;6.43;;
7181;SDS011;3632;42.724;23.298;2023-04-06T13:18:37;8.93;;;6.43;;
7181;SDS011;3632;42.724;23.298;2023-04-06T13:21:04;9.13;;;6.60;;
7181;SDS011;3632;42.724;23.298;2023-04-06T13:23:31;9.13;;;7.40;;
7181;SDS011;3632;42.724;23.298;2023-04-06T13:25:59;7.07;;;6.37;;
7181;SDS011;3632;42.724;23.298;2023-04-06T13:28:27;7.47;;;6.47;;
7181;SDS011;3632;42.724;23.298;2023-04-06T13:30:54;6.77;;;6.07;;
7181;SDS011;3632;42.724;23.298;2023-04-06T13:33:23;8.70;;;7.80;;
7181;SDS011;3632;42.724;23.298;2023-04-06T13:35:50;10.17;;;6.90;;
7181;SDS011;3632;42.724;23.298;2023-04-06T13:38:17;7.83;;;6.30;;
7181;SDS011;3632;42.724;23.298;2023-04-06T13:40:44;9.43;;;6.43;;
7181;SDS011;3632;42.724;23.298;2023-04-06T13:43:11;8.17;;;6.30;;
7181;SDS011;3632;42.724;23.298;2023-04-06T13:45:38;10.33;;;7.40;;
7181;SDS011;3632;42.724;23.298;2023-04-06T13:48:05;9.63;;;7.33;;
7181;SDS011;3632;42.724;23.298;2023-04-06T13:50:33;8.80;;;6.57;;
7181;SDS011;3632;42.724;23.298;2023-04-06T13:53:00;7.03;;;6.13;;
7181;SDS011;3632;42.724;23.298;2023-04-06T13:55:27;8.97;;;6.87;;
7181;SDS011;3632;42.724;23.298;2023-04-06T13:57:55;11.07;;;6.60;;
7181;SDS011;3632;42.724;23.298;2023-04-06T14:00:22;8.77;;;7.40;;
7181;SDS011;3632;42.724;23.298;2023-04-06T14:02:49;8.07;;;6.67;;
7181;SDS011;3632;42.724;23.298;2023-04-06T14:05:16;10.47;;;6.90;;
7181;SDS011;3632;42.724;23.298;2023-04-06T14:07:45;8.53;;;6.20;;
7181;SDS011;3632;42.724;23.298;2023-04-06T14:10:12;7.20;;;6.43;;
7181;SDS011;3632;42.724;23.298;2023-04-06T14:12:40;8.03;;;6.43;;
7181;SDS011;3632;42.724;23.298;2023-04-06T14:15:09;10.30;;;7.70;;
7181;SDS011;3632;42.724;23.298;2023-04-06T14:17:36;8.37;;;6.70;;
7181;SDS011;3632;42.724;23.298;2023-04-06T14:20:04;9.63;;;7.07;;
7181;SDS011;3632;42.724;23.298;2023-04-06T14:22:32;9.93;;;7.13;;
7181;SDS011;3632;42.724;23.298;2023-04-06T14:25:01;11.13;;;7.00;;
7181;SDS011;3632;42.724;23.298;2023-04-06T14:27:28;12.83;;;7.40;;
7181;SDS011;3632;42.724;23.298;2023-04-06T14:29:55;10.70;;;7.70;;
7181;SDS011;3632;42.724;23.298;2023-04-06T14:32:22;10.77;;;8.53;;
7181;SDS011;3632;42.724;23.298;2023-04-06T14:34:49;14.20;;;10.17;;
7181;SDS011;3632;42.724;23.298;2023-04-06T14:37:16;14.63;;;10.77;;
7181;SDS011;3632;42.724;23.298;2023-04-06T14:39:43;13.13;;;10.00;;
7181;SDS011;3632;42.724;23.298;2023-04-06T14:42:12;10.67;;;8.70;;
7181;SDS011;3632;42.724;23.298;2023-04-06T14:44:39;9.43;;;8.43;;
7181;SDS011;3632;42.724;23.298;2023-04-06T14:47:09;10.57;;;8.07;;